Terminal Aerodrome Forecast
Issued by NWS

Home | Current Version | Previous Version | Text Only | Print | Product List | Glossary On
Versions: 1 2 3 4 5 6 7 8 9 10 11 12 13 14 15
000
FTAK31 PAJN 061700
TAFASI
TAF
PASI 061721Z 0618/0718 VRB04KT P6SM VCSH SCT015 BKN025
      TEMPO 0618/0621 5SM -SHRA BR
     FM062100 10005KT P6SM SCT020 BKN040
     FM071200 12005KT P6SM VCSH SCT015 OVC025=

USA.gov is the U.S. government's official web portal to all federal, state and local government web resources and services.